Hallock, MN

3:37 AM CST on December 09, 2016 (GMT -0600)
Hallock Municipal | | Change Station

Elev 820 ft 48.75 °N, 96.94 °W | Updated 23 minutes ago

Overcast
Overcast
7 °F
Feels Like -2 °F
N
5
Wind Variable Wind from North

Today
High -- | Low -- °F
--% Chance of Precip.
Yesterday
High -- | Low -- °F
Precip. -- in
Pressure 30.56 in
Visibility 10.0 miles
Clouds Mostly Cloudy 1900 ft
Overcast 2700 ft
Windchill -2 °F
Dew Point 3 °F
Humidity 85%
Rainfall 0.00 in
Snow Depth Not available.
8:09 AM 4:31 PM
Waxing Gibbous, 72% visible
METAR KHCO 090914Z AUTO 01004KT 10SM BKN019 OVC027 M14/M16 A3056 RMK AO2
Pressure 30.56 in
Visibility 10.0 miles
Clouds Mostly Cloudy 1900 ft
Overcast 2700 ft
Windchill -2 °F
Dew Point 3 °F
Humidity 85%
Rainfall 0.00 in
Snow Depth Not available.
8:09 AM 4:31 PM
Waxing Gibbous, 72% visible
METAR KHCO 090914Z AUTO 01004KT 10SM BKN019 OVC027 M14/M16 A3056 RMK AO2

10-Day Weather Forecast

Almanac

Astronomy

Dec. 09, 2016 Rise Set
Actual Time
Civil Twilight
Nautical Twilight
Astronomical Twilight
Moon
Length of Visible Light
Length of Day
Tomorrow will be .
, % of the Moon is Illuminated

Today's Extremes

State Highs State Lows

Community

WunderPhotos

Upload Photos

1,956,371 photos uploaded!

WunderBlog® & News

Nearby

Air Quality

  Air Quality AQ Index Pollutant
Not available.

Snow Depth

Station Depth Elevation

Earthquake Activity

City Distance Mag. Time & Date
Minimum magnitude displayed is 2.5.

Coastal Water Temperatures

Place Temperature

Stations

Nearby Weather Stations

Station Location Temp. Windchill Dew Point Humidity Wind Precip. Elev Updated Type
                   

Watches & Warnings

There are currently no watches in effect.